createdAt,value
2017-08-20T00:00:55.270Z,24.85
2017-08-20T00:01:55.612Z,24.78
2017-08-20T00:02:55.637Z,24.84
2017-08-20T00:03:55.354Z,24.85
2017-08-20T00:04:55.381Z,24.9
2017-08-20T00:05:55.408Z,24.84
2017-08-20T00:06:55.448Z,24.77
2017-08-20T00:07:55.463Z,24.87
2017-08-20T00:08:55.809Z,24.73
2017-08-20T00:09:55.831Z,24.88
2017-08-20T00:10:55.861Z,24.87
2017-08-20T00:11:55.889Z,24.85
2017-08-20T00:12:55.288Z,24.87
2017-08-20T00:13:55.634Z,24.84
2017-08-20T00:14:55.657Z,24.77
2017-08-20T00:15:55.370Z,24.83
2017-08-20T00:16:55.403Z,24.83
2017-08-20T00:17:55.741Z,24.87
2017-08-20T00:18:55.770Z,24.77
2017-08-20T00:19:55.802Z,24.77
2017-08-20T00:20:55.822Z,24.84
2017-08-20T00:21:55.843Z,24.88
2017-08-20T00:22:56.190Z,24.81
2017-08-20T00:23:55.905Z,24.84
2017-08-20T00:24:55.653Z,24.87
2017-08-20T00:25:55.959Z,24.8
2017-08-20T00:26:56.287Z,24.8
2017-08-20T00:27:55.701Z,24.83
2017-08-20T00:28:55.730Z,24.81
2017-08-20T00:29:56.074Z,24.84
2017-08-20T00:30:55.787Z,24.87
2017-08-20T00:31:56.440Z,24.81
2017-08-20T00:32:56.466Z,24.9
2017-08-20T00:33:56.177Z,24.85
2017-08-20T00:34:56.522Z,24.84
2017-08-20T00:35:56.541Z,24.81
2017-08-20T00:36:56.580Z,24.85
2017-08-20T00:37:56.292Z,24.8
2017-08-20T00:38:56.321Z,24.81
2017-08-20T00:39:56.349Z,24.83
2017-08-20T00:40:56.632Z,24.88
2017-08-20T00:41:56.721Z,24.91
2017-08-20T00:42:56.744Z,24.83
2017-08-20T00:43:56.770Z,24.85
2017-08-20T00:44:56.793Z,24.84
2017-08-20T00:45:57.079Z,24.84
2017-08-20T00:46:56.860Z,24.84
2017-08-20T00:47:56.257Z,24.87
2017-08-20T00:48:56.597Z,24.81
2017-08-20T00:49:56.938Z,24.81
2017-08-20T00:50:57.214Z,24.8
2017-08-20T00:51:56.679Z,24.8
2017-08-20T00:52:57.021Z,24.8
2017-08-20T00:53:56.738Z,24.83
2017-08-20T00:54:56.770Z,24.85
2017-08-20T00:55:57.086Z,24.8
2017-08-20T00:56:56.505Z,24.83
2017-08-20T00:57:56.845Z,24.91
2017-08-20T00:58:57.181Z,24.83
2017-08-20T00:59:57.221Z,24.76
2017-08-20T01:00:57.234Z,24.83
2017-08-20T01:01:57.270Z,24.85
2017-08-20T01:02:57.296Z,24.76
2017-08-20T01:03:57.325Z,24.85
2017-08-20T01:04:57.041Z,24.76
2017-08-20T01:05:57.322Z,24.83
2017-08-20T01:06:57.404Z,24.83
2017-08-20T01:07:57.432Z,24.78
2017-08-20T01:08:57.456Z,24.83
2017-08-20T01:09:57.484Z,24.77
2017-08-20T01:10:57.513Z,24.76
2017-08-20T01:11:56.919Z,24.77
2017-08-20T01:12:57.255Z,24.78
2017-08-20T01:13:57.289Z,24.83
2017-08-20T01:14:57.322Z,24.77
2017-08-20T01:15:57.911Z,24.84
2017-08-20T01:16:57.059Z,24.78
2017-08-20T01:17:57.708Z,24.77
2017-08-20T01:18:57.732Z,24.83
2017-08-20T01:19:57.451Z,24.76
2017-08-20T01:20:57.727Z,24.76
2017-08-20T01:21:57.811Z,24.83
2017-08-20T01:22:57.229Z,24.73
2017-08-20T01:23:57.872Z,24.78
2017-08-20T01:24:57.589Z,24.78
2017-08-20T01:25:58.174Z,24.83
2017-08-20T01:26:57.651Z,24.73
2017-08-20T01:27:57.669Z,24.73
2017-08-20T01:28:58.015Z,24.77
2017-08-20T01:29:57.727Z,24.64
2017-08-20T01:30:58.318Z,24.76
2017-08-20T01:31:57.783Z,24.68
2017-08-20T01:32:58.125Z,24.76
2017-08-20T01:33:58.152Z,24.71
2017-08-20T01:34:57.868Z,24.78
2017-08-20T01:35:58.150Z,24.77
2017-08-20T01:36:57.922Z,24.73
2017-08-20T01:37:58.255Z,24.67
2017-08-20T01:38:58.289Z,24.71
2017-08-20T01:39:58.340Z,24.69
2017-08-20T01:40:58.343Z,24.68
2017-08-20T01:41:58.366Z,24.77
2017-08-20T01:42:57.775Z,24.68
2017-08-20T01:43:58.425Z,24.65
2017-08-20T01:44:58.454Z,24.67
2017-08-20T01:45:58.470Z,24.64
2017-08-20T01:46:58.199Z,24.76
2017-08-20T01:47:57.903Z,24.67
2017-08-20T01:48:58.556Z,24.71
2017-08-20T01:49:58.276Z,24.76
2017-08-20T01:50:58.866Z,24.69
2017-08-20T01:51:58.339Z,24.6
2017-08-20T01:52:58.675Z,24.65
2017-08-20T01:53:58.392Z,24.73
2017-08-20T01:54:58.420Z,24.61
2017-08-20T01:55:58.717Z,24.69
2017-08-20T01:56:58.478Z,24.68
2017-08-20T01:57:58.812Z,24.65
2017-08-20T01:58:58.532Z,24.67
2017-08-20T01:59:58.557Z,24.57
2017-08-20T02:00:59.146Z,24.57
2017-08-20T02:01:58.302Z,24.55
2017-08-20T02:02:58.951Z,24.62
2017-08-20T02:03:58.980Z,24.61
2017-08-20T02:04:58.689Z,24.65
2017-08-20T02:05:58.965Z,24.65
2017-08-20T02:06:58.749Z,24.62
2017-08-20T02:07:58.783Z,24.65
2017-08-20T02:08:59.112Z,24.62
2017-08-20T02:09:58.857Z,24.6
2017-08-20T02:10:58.801Z,24.61
2017-08-20T02:11:59.197Z,24.61
2017-08-20T02:12:58.914Z,24.64
2017-08-20T02:13:59.248Z,24.61
2017-08-20T02:14:58.972Z,24.65
2017-08-20T02:15:58.934Z,24.67
2017-08-20T02:16:59.023Z,24.62
2017-08-20T02:17:59.042Z,24.58
2017-08-20T02:18:59.388Z,24.52
2017-08-20T02:19:59.097Z,24.68
2017-08-20T02:20:59.693Z,24.65
2017-08-20T02:21:59.157Z,24.64
2017-08-20T02:22:59.191Z,24.58
2017-08-20T02:23:59.522Z,24.58
2017-08-20T02:24:59.560Z,24.55
2017-08-20T02:25:59.879Z,24.58
2017-08-20T02:26:59.611Z,24.58
2017-08-20T02:27:59.015Z,24.6
2017-08-20T02:28:59.663Z,24.53
2017-08-20T02:29:59.378Z,24.6
2017-08-20T02:30:59.097Z,24.53
2017-08-20T02:31:59.446Z,24.5
2017-08-20T02:32:59.467Z,24.52
2017-08-20T02:33:59.205Z,24.6
2017-08-20T02:34:59.520Z,24.47
2017-08-20T02:35:59.853Z,24.58
2017-08-20T02:36:59.574Z,24.61
2017-08-20T02:37:59.599Z,24.58
2017-08-20T02:38:59.940Z,24.58
2017-08-20T02:39:59.656Z,24.52
2017-08-20T02:40:59.679Z,24.57
2017-08-20T02:41:59.710Z,24.49
2017-08-20T02:42:59.739Z,24.57
2017-08-20T02:44:00.078Z,24.57
2017-08-20T02:45:00.100Z,24.57
2017-08-20T02:45:59.513Z,24.58
2017-08-20T02:47:00.163Z,24.45
2017-08-20T02:47:59.562Z,24.6
2017-08-20T02:48:59.592Z,24.53
2017-08-20T02:49:59.928Z,24.57
2017-08-20T02:51:00.273Z,24.53
2017-08-20T02:52:00.298Z,24.46
2017-08-20T02:53:00.016Z,24.53
2017-08-20T02:54:00.039Z,24.55
2017-08-20T02:55:00.069Z,24.5
2017-08-20T02:56:00.093Z,24.45
2017-08-20T02:57:00.378Z,24.46
2017-08-20T02:58:00.459Z,24.52
2017-08-20T02:59:00.492Z,24.45
2017-08-20T03:00:00.522Z,24.49
2017-08-20T03:01:00.548Z,24.53
2017-08-20T03:02:00.862Z,24.42
2017-08-20T03:03:00.598Z,24.52
2017-08-20T03:04:00.626Z,24.53
2017-08-20T03:05:00.660Z,24.58
2017-08-20T03:06:00.056Z,24.45
2017-08-20T03:07:00.999Z,24.52
2017-08-20T03:08:00.726Z,24.52
2017-08-20T03:09:00.451Z,24.49
2017-08-20T03:10:00.792Z,24.46
2017-08-20T03:11:00.818Z,24.52
2017-08-20T03:12:01.101Z,24.46
2017-08-20T03:13:00.562Z,24.46
2017-08-20T03:14:00.588Z,24.55
2017-08-20T03:15:00.616Z,24.45
2017-08-20T03:16:00.645Z,24.46
2017-08-20T03:17:01.241Z,24.49
2017-08-20T03:18:00.699Z,24.45
2017-08-20T03:19:00.418Z,24.43
2017-08-20T03:20:00.751Z,24.35
2017-08-20T03:21:00.779Z,24.45
2017-08-20T03:22:01.054Z,24.43
2017-08-20T03:23:01.146Z,24.37
2017-08-20T03:24:00.864Z,24.43
2017-08-20T03:25:00.887Z,24.43
2017-08-20T03:26:01.229Z,24.43
2017-08-20T03:27:00.886Z,24.39
2017-08-20T03:28:01.295Z,24.43
2017-08-20T03:29:01.311Z,24.46
2017-08-20T03:30:01.341Z,24.43
2017-08-20T03:31:01.369Z,24.35
2017-08-20T03:32:01.655Z,24.42
2017-08-20T03:33:01.110Z,24.45
2017-08-20T03:34:01.144Z,24.35
2017-08-20T03:35:01.164Z,24.37
2017-08-20T03:36:01.189Z,24.42
2017-08-20T03:37:01.823Z,24.4
2017-08-20T03:38:01.565Z,24.42
2017-08-20T03:39:01.274Z,24.4
2017-08-20T03:40:00.993Z,24.43
2017-08-20T03:41:01.636Z,24.43
2017-08-20T03:42:01.657Z,24.4
2017-08-20T03:43:01.703Z,24.45
2017-08-20T03:44:01.407Z,24.4
2017-08-20T03:45:01.748Z,24.4
2017-08-20T03:46:01.466Z,24.45
2017-08-20T03:47:01.793Z,24.4
2017-08-20T03:48:01.215Z,24.35
2017-08-20T03:49:01.860Z,24.32
2017-08-20T03:50:01.580Z,24.37
2017-08-20T03:51:01.603Z,24.3
2017-08-20T03:52:02.201Z,24.42
2017-08-20T03:53:01.970Z,24.39
2017-08-20T03:54:01.690Z,24.34
2017-08-20T03:55:02.024Z,24.4
2017-08-20T03:56:02.048Z,24.37
2017-08-20T03:57:01.765Z,24.42
2017-08-20T03:58:01.799Z,24.42
2017-08-20T03:59:02.131Z,24.46
2017-08-20T04:00:02.155Z,24.28
2017-08-20T04:01:01.877Z,24.31
2017-08-20T04:02:01.896Z,24.34
2017-08-20T04:03:01.623Z,24.37
2017-08-20T04:04:02.277Z,24.35
2017-08-20T04:05:01.992Z,24.25
2017-08-20T04:06:02.316Z,24.28
2017-08-20T04:07:02.037Z,24.39
2017-08-20T04:08:02.064Z,24.27
2017-08-20T04:09:02.402Z,24.34
2017-08-20T04:10:02.428Z,24.4
2017-08-20T04:11:02.460Z,24.25
2017-08-20T04:12:02.501Z,24.39
2017-08-20T04:13:02.201Z,24.31
2017-08-20T04:14:02.543Z,24.34
2017-08-20T04:15:02.568Z,24.31
2017-08-20T04:16:02.287Z,24.25
2017-08-20T04:17:02.312Z,24.22
2017-08-20T04:18:02.337Z,24.25
2017-08-20T04:19:02.366Z,24.22
2017-08-20T04:20:02.705Z,24.32
2017-08-20T04:21:02.727Z,24.28
2017-08-20T04:22:02.770Z,24.27
2017-08-20T04:23:02.469Z,24.3
2017-08-20T04:24:02.503Z,24.24
2017-08-20T04:25:02.529Z,24.3
2017-08-20T04:26:02.555Z,24.28
2017-08-20T04:27:02.896Z,24.27
2017-08-20T04:28:02.917Z,24.28
2017-08-20T04:29:02.953Z,24.22
2017-08-20T04:30:02.971Z,24.3
2017-08-20T04:31:02.692Z,24.24
2017-08-20T04:32:03.033Z,24.3
2017-08-20T04:33:03.052Z,24.27
2017-08-20T04:34:03.087Z,24.25
2017-08-20T04:35:02.803Z,24.24
2017-08-20T04:36:02.516Z,24.28
2017-08-20T04:37:03.171Z,24.28
2017-08-20T04:38:03.186Z,24.24
2017-08-20T04:39:02.910Z,24.22
2017-08-20T04:40:02.625Z,24.28
2017-08-20T04:41:02.660Z,24.24
2017-08-20T04:42:02.984Z,24.25
2017-08-20T04:43:03.581Z,24.24
2017-08-20T04:44:03.050Z,24.3
2017-08-20T04:45:02.763Z,24.24
2017-08-20T04:46:03.099Z,24.2
2017-08-20T04:47:03.120Z,24.27
2017-08-20T04:48:03.464Z,24.31
2017-08-20T04:49:03.481Z,24.25
2017-08-20T04:50:03.215Z,24.24
2017-08-20T04:51:02.926Z,24.24
2017-08-20T04:52:03.578Z,24.32
2017-08-20T04:53:03.600Z,24.24
2017-08-20T04:54:03.325Z,24.25
2017-08-20T04:55:03.659Z,24.31
2017-08-20T04:56:03.375Z,24.22
2017-08-20T04:57:03.716Z,24.25
2017-08-20T04:58:03.739Z,24.28
2017-08-20T04:59:03.766Z,24.28
2017-08-20T05:00:03.489Z,24.31
2017-08-20T05:01:03.199Z,24.32
2017-08-20T05:02:03.849Z,24.22
2017-08-20T05:03:03.866Z,24.3
2017-08-20T05:04:03.588Z,24.32
2017-08-20T05:05:03.618Z,24.28
2017-08-20T05:06:03.334Z,24.32
2017-08-20T05:07:03.985Z,24.3
2017-08-20T05:08:04.276Z,24.3
2017-08-20T05:09:04.041Z,24.28
2017-08-20T05:10:04.072Z,24.28
2017-08-20T05:11:03.778Z,24.3
2017-08-20T05:12:04.124Z,24.18
2017-08-20T05:13:04.152Z,24.31
2017-08-20T05:14:04.173Z,24.22
2017-08-20T05:15:03.886Z,24.31
2017-08-20T05:16:03.606Z,24.25
2017-08-20T05:17:03.940Z,24.28
2017-08-20T05:18:04.532Z,24.27
2017-08-20T05:19:03.996Z,24.3
2017-08-20T05:20:04.330Z,24.21
2017-08-20T05:21:04.363Z,24.21
2017-08-20T05:22:04.395Z,24.28
2017-08-20T05:23:04.357Z,24.21
2017-08-20T05:24:04.449Z,24.28
2017-08-20T05:25:04.162Z,24.28
2017-08-20T05:26:04.191Z,24.24
2017-08-20T05:27:04.220Z,24.27
2017-08-20T05:28:04.190Z,24.28
2017-08-20T05:29:04.585Z,24.28
2017-08-20T05:30:04.318Z,24.21
2017-08-20T05:31:04.327Z,24.2
2017-08-20T05:32:04.658Z,24.3
2017-08-20T05:33:04.381Z,24.24
2017-08-20T05:34:04.722Z,24.18
2017-08-20T05:35:04.749Z,24.27
2017-08-20T05:36:04.464Z,24.27
2017-08-20T05:37:04.803Z,24.16
2017-08-20T05:38:04.772Z,24.24
2017-08-20T05:39:04.852Z,24.27
2017-08-20T05:40:04.569Z,24.27
2017-08-20T05:41:04.287Z,24.3
2017-08-20T05:42:04.936Z,24.31
2017-08-20T05:43:04.968Z,24.22
2017-08-20T05:44:04.680Z,24.3
2017-08-20T05:45:05.010Z,24.2
2017-08-20T05:46:04.740Z,24.16
2017-08-20T05:47:04.763Z,24.28
2017-08-20T05:48:05.109Z,24.3
2017-08-20T05:49:05.130Z,24.3
2017-08-20T05:50:04.848Z,24.32
2017-08-20T05:51:05.187Z,24.21
2017-08-20T05:52:05.207Z,24.31
2017-08-20T05:53:05.240Z,24.27
2017-08-20T05:54:04.956Z,24.3
2017-08-20T05:55:05.281Z,24.24
2017-08-20T05:56:05.314Z,24.28
2017-08-20T05:57:05.346Z,24.34
2017-08-20T05:58:05.308Z,24.24
2017-08-20T05:59:05.088Z,24.3
2017-08-20T06:00:05.117Z,24.24
2017-08-20T06:01:05.449Z,24.21
2017-08-20T06:02:05.171Z,24.28
2017-08-20T06:03:05.508Z,24.35
2017-08-20T06:04:05.226Z,24.24
2017-08-20T06:05:05.245Z,24.24
2017-08-20T06:06:05.278Z,24.28
2017-08-20T06:07:05.307Z,24.24
2017-08-20T06:08:05.644Z,24.27
2017-08-20T06:09:05.365Z,24.22
2017-08-20T06:10:05.405Z,24.28
2017-08-20T06:11:05.418Z,24.28
2017-08-20T06:12:05.759Z,24.31
2017-08-20T06:13:05.779Z,24.34
2017-08-20T06:14:05.496Z,24.24
2017-08-20T06:15:05.513Z,24.34
2017-08-20T06:16:05.550Z,24.21
2017-08-20T06:17:05.895Z,24.24
2017-08-20T06:18:05.928Z,24.34
2017-08-20T06:19:05.942Z,24.25
2017-08-20T06:20:06.008Z,24.25
2017-08-20T06:21:05.685Z,24.39
2017-08-20T06:22:05.715Z,24.28
2017-08-20T06:23:05.748Z,24.3
2017-08-20T06:24:06.076Z,24.27
2017-08-20T06:25:05.801Z,24.3
2017-08-20T06:26:05.837Z,24.34
2017-08-20T06:27:06.166Z,24.3
2017-08-20T06:28:05.879Z,24.24
2017-08-20T06:29:06.216Z,24.4
2017-08-20T06:30:05.928Z,24.35
2017-08-20T06:31:05.966Z,24.28
2017-08-20T06:32:06.298Z,24.25
2017-08-20T06:33:06.271Z,24.3
2017-08-20T06:34:06.041Z,24.39
2017-08-20T06:35:05.758Z,24.34
2017-08-20T06:36:06.410Z,24.37
2017-08-20T06:37:06.123Z,24.22
2017-08-20T06:38:06.472Z,24.3
2017-08-20T06:39:06.487Z,24.25
2017-08-20T06:40:06.517Z,24.37
2017-08-20T06:41:06.226Z,24.28
2017-08-20T06:42:06.571Z,24.3
2017-08-20T06:43:06.287Z,24.39
2017-08-20T06:44:06.316Z,24.34
2017-08-20T06:45:06.344Z,24.37
2017-08-20T06:46:06.665Z,24.3
2017-08-20T06:47:06.390Z,24.34
2017-08-20T06:48:06.986Z,24.31
2017-08-20T06:49:06.448Z,24.39
2017-08-20T06:50:06.471Z,24.43
2017-08-20T06:51:06.808Z,24.32
2017-08-20T06:52:06.530Z,24.32
2017-08-20T06:53:06.810Z,24.39
2017-08-20T06:54:06.584Z,24.43
2017-08-20T06:55:06.923Z,24.39
2017-08-20T06:56:06.953Z,24.4
2017-08-20T06:57:06.977Z,24.39
2017-08-20T06:58:07.010Z,24.39
2017-08-20T06:59:06.724Z,24.4
2017-08-20T07:00:07.061Z,24.35
2017-08-20T07:01:07.085Z,24.45
2017-08-20T07:02:06.803Z,24.4
2017-08-20T07:03:07.135Z,24.39
2017-08-20T07:04:07.168Z,24.42
2017-08-20T07:05:07.196Z,24.45
2017-08-20T07:06:07.220Z,24.35
2017-08-20T07:07:06.942Z,24.42
2017-08-20T07:08:07.528Z,24.3
2017-08-20T07:09:06.992Z,24.25
2017-08-20T07:10:07.325Z,24.32
2017-08-20T07:11:07.048Z,24.25
2017-08-20T07:12:07.389Z,24.24
2017-08-20T07:13:07.415Z,24.3
2017-08-20T07:14:07.443Z,24.21
2017-08-20T07:15:07.469Z,24.27
2017-08-20T07:16:07.183Z,24.24
2017-08-20T07:17:07.205Z,24.24
2017-08-20T07:18:07.558Z,24.25
2017-08-20T07:19:06.951Z,24.31
2017-08-20T07:20:07.624Z,24.27
2017-08-20T07:21:07.322Z,24.32
2017-08-20T07:22:07.342Z,24.27
2017-08-20T07:23:07.687Z,24.28
2017-08-20T07:24:07.403Z,24.22
2017-08-20T07:25:07.744Z,24.25
2017-08-20T07:26:07.764Z,24.22
2017-08-20T07:27:07.485Z,24.25
2017-08-20T07:28:07.823Z,24.35
2017-08-20T07:29:07.852Z,24.35
2017-08-20T07:30:07.562Z,24.34
2017-08-20T07:31:07.599Z,24.34
2017-08-20T07:32:07.938Z,24.35
2017-08-20T07:33:07.646Z,24.4
2017-08-20T07:34:07.674Z,24.34
2017-08-20T07:35:08.064Z,24.39
2017-08-20T07:36:07.729Z,24.32
2017-08-20T07:37:08.062Z,24.32
2017-08-20T07:38:08.345Z,24.28
2017-08-20T07:39:08.132Z,24.34
2017-08-20T07:40:07.844Z,24.27
2017-08-20T07:41:07.861Z,24.34
2017-08-20T07:42:08.197Z,24.28
2017-08-20T07:43:08.228Z,24.24
2017-08-20T07:44:07.950Z,24.42
2017-08-20T07:45:07.977Z,24.35
2017-08-20T07:46:08.332Z,24.34
2017-08-20T07:47:08.337Z,24.39
2017-08-20T07:48:08.358Z,24.42
2017-08-20T07:49:08.128Z,24.45
2017-08-20T07:50:08.107Z,24.4
2017-08-20T07:51:08.141Z,24.47
2017-08-20T07:52:08.473Z,24.45
2017-08-20T07:53:08.511Z,24.45
2017-08-20T07:54:08.223Z,24.55
2017-08-20T07:55:08.247Z,24.52
2017-08-20T07:56:08.275Z,24.46
2017-08-20T07:57:08.613Z,24.6
2017-08-20T07:58:08.027Z,24.46
2017-08-20T07:59:08.366Z,24.57
2017-08-20T08:00:08.379Z,24.58
2017-08-20T08:01:08.744Z,24.53
2017-08-20T08:02:08.754Z,24.53
2017-08-20T08:03:08.777Z,24.61
2017-08-20T08:04:08.799Z,24.57
2017-08-20T08:05:08.834Z,24.5
2017-08-20T08:06:08.862Z,24.58
2017-08-20T08:07:08.888Z,24.58
2017-08-20T08:08:08.606Z,24.5
2017-08-20T08:09:08.940Z,24.65
2017-08-20T08:10:08.661Z,24.64
2017-08-20T08:11:08.686Z,24.58
2017-08-20T08:12:09.037Z,24.67
2017-08-20T08:13:09.045Z,24.67
2017-08-20T08:14:09.082Z,24.69
2017-08-20T08:15:08.799Z,24.67
2017-08-20T08:16:09.135Z,24.73
2017-08-20T08:17:09.157Z,24.76
2017-08-20T08:18:08.882Z,24.65
2017-08-20T08:19:09.520Z,24.77
2017-08-20T08:20:08.937Z,24.69
2017-08-20T08:21:09.268Z,24.83
2017-08-20T08:22:08.988Z,24.64
2017-08-20T08:23:09.014Z,24.64
2017-08-20T08:24:09.354Z,24.85
2017-08-20T08:25:09.090Z,24.8
2017-08-20T08:26:09.092Z,24.83
2017-08-20T08:27:09.121Z,24.8
2017-08-20T08:28:09.145Z,24.83
2017-08-20T08:29:09.174Z,24.8
2017-08-20T08:30:09.208Z,24.77
2017-08-20T08:31:09.236Z,24.77
2017-08-20T08:32:09.260Z,24.87
2017-08-20T08:33:09.285Z,24.87
2017-08-20T08:34:09.315Z,24.77
2017-08-20T08:35:09.660Z,24.87
2017-08-20T08:36:09.687Z,24.81
2017-08-20T08:37:09.733Z,24.81
2017-08-20T08:38:09.428Z,24.87
2017-08-20T08:39:10.068Z,24.81
2017-08-20T08:40:09.795Z,24.85
2017-08-20T08:41:09.509Z,24.87
2017-08-20T08:42:09.861Z,24.88
2017-08-20T08:43:09.870Z,24.88
2017-08-20T08:44:10.215Z,24.87
2017-08-20T08:45:09.938Z,24.88
2017-08-20T08:46:09.959Z,24.85
2017-08-20T08:47:09.674Z,24.99
2017-08-20T08:48:10.004Z,24.99
2017-08-20T08:49:10.042Z,24.99
2017-08-20T08:50:10.071Z,25.03
2017-08-20T08:51:10.106Z,24.98
2017-08-20T08:52:10.123Z,24.96
2017-08-20T08:53:10.144Z,24.99
2017-08-20T08:54:09.557Z,24.99
2017-08-20T08:55:10.210Z,25.03
2017-08-20T08:56:10.239Z,24.98
2017-08-20T08:57:10.270Z,24.99
2017-08-20T08:58:10.280Z,24.98
2017-08-20T08:59:09.693Z,25.02
2017-08-20T09:00:10.053Z,25.03
2017-08-20T09:01:10.370Z,25.1
2017-08-20T09:02:10.080Z,25.05
2017-08-20T09:03:10.418Z,25.05
2017-08-20T09:04:10.392Z,25.05
2017-08-20T09:05:10.481Z,25.1
2017-08-20T09:06:10.505Z,25.09
2017-08-20T09:07:10.225Z,25.18
2017-08-20T09:08:10.247Z,25.1
2017-08-20T09:09:10.609Z,25.06
2017-08-20T09:10:10.626Z,25.09
2017-08-20T09:11:10.022Z,25.13
2017-08-20T09:12:10.681Z,25.09
2017-08-20T09:13:10.694Z,25.13
2017-08-20T09:14:10.732Z,25.09
2017-08-20T09:15:10.761Z,25.09
2017-08-20T09:16:10.787Z,25.09
2017-08-20T09:17:10.819Z,25.15
2017-08-20T09:18:10.524Z,25.18
2017-08-20T09:19:11.165Z,25.17
2017-08-20T09:20:10.902Z,25.18
2017-08-20T09:21:10.925Z,25.1
2017-08-20T09:22:10.638Z,25.18
2017-08-20T09:23:10.970Z,25.15
2017-08-20T09:24:10.696Z,25.13
2017-08-20T09:25:10.725Z,25.15
2017-08-20T09:26:11.063Z,25.13
2017-08-20T09:27:11.086Z,25.14
2017-08-20T09:28:11.112Z,25.13
2017-08-20T09:29:10.835Z,25.1
2017-08-20T09:30:10.861Z,25.06
2017-08-20T09:31:10.578Z,25.06
2017-08-20T09:32:11.230Z,25.06
2017-08-20T09:33:10.942Z,25.09
2017-08-20T09:34:10.972Z,25.02
2017-08-20T09:35:11.001Z,24.98
2017-08-20T09:36:11.033Z,24.99
2017-08-20T09:37:11.366Z,24.93
2017-08-20T09:38:11.387Z,24.96
2017-08-20T09:39:11.423Z,24.98
2017-08-20T09:40:11.140Z,24.99
2017-08-20T09:41:11.166Z,25.09
2017-08-20T09:42:11.507Z,25.05
2017-08-20T09:43:11.220Z,25.08
2017-08-20T09:44:11.270Z,25.13
2017-08-20T09:45:11.284Z,25.08
2017-08-20T09:46:11.617Z,25.08
2017-08-20T09:47:11.339Z,25.03
2017-08-20T09:48:11.387Z,25.02
2017-08-20T09:49:11.690Z,25.06
2017-08-20T09:50:11.416Z,25.02
2017-08-20T09:51:11.757Z,25.09
2017-08-20T09:52:11.494Z,25.09
2017-08-20T09:53:11.816Z,25.06
2017-08-20T09:54:11.527Z,25.05
2017-08-20T09:55:11.864Z,25.14
2017-08-20T09:56:11.896Z,25.09
2017-08-20T09:57:11.922Z,25.15
2017-08-20T09:58:11.954Z,25.1
2017-08-20T09:59:12.231Z,25.08
2017-08-20T10:00:11.720Z,25.14
2017-08-20T10:01:12.029Z,25.15
2017-08-20T10:02:12.070Z,25.15
2017-08-20T10:03:12.094Z,25.13
2017-08-20T10:04:11.811Z,25.06
2017-08-20T10:05:11.831Z,25.1
2017-08-20T10:06:11.860Z,25.18
2017-08-20T10:07:11.577Z,25.13
2017-08-20T10:08:12.229Z,25.02
2017-08-20T10:09:12.559Z,25.03
2017-08-20T10:10:12.287Z,24.98
2017-08-20T10:11:12.309Z,24.95
2017-08-20T10:12:12.347Z,25.02
2017-08-20T10:13:12.049Z,24.91
2017-08-20T10:14:12.339Z,24.93
2017-08-20T10:15:12.432Z,24.91
2017-08-20T10:16:12.453Z,24.87
2017-08-20T10:17:12.479Z,24.84
2017-08-20T10:18:12.512Z,24.88
2017-08-20T10:19:12.838Z,24.9
2017-08-20T10:20:12.251Z,24.85
2017-08-20T10:21:12.286Z,24.88
2017-08-20T10:22:12.315Z,24.87
2017-08-20T10:23:12.656Z,24.88
2017-08-20T10:24:12.930Z,24.99
2017-08-20T10:25:12.387Z,24.99
2017-08-20T10:26:12.419Z,24.96
2017-08-20T10:27:12.761Z,25.03
2017-08-20T10:28:12.471Z,25.1
2017-08-20T10:29:12.807Z,25.13
2017-08-20T10:30:12.847Z,25.09
2017-08-20T10:31:12.879Z,25.13
2017-08-20T10:32:12.898Z,25.14
2017-08-20T10:33:12.938Z,25.17
2017-08-20T10:34:12.669Z,25.18
2017-08-20T10:35:12.987Z,25.17
2017-08-20T10:36:13.019Z,25.2
2017-08-20T10:37:13.039Z,25.18
2017-08-20T10:38:12.445Z,25.13
2017-08-20T10:39:13.349Z,25.17
2017-08-20T10:40:13.127Z,25.14
2017-08-20T10:41:12.842Z,25.2
2017-08-20T10:42:13.176Z,25.24
2017-08-20T10:43:13.209Z,25.23
2017-08-20T10:44:13.233Z,25.25
2017-08-20T10:45:13.262Z,25.27
2017-08-20T10:46:13.304Z,25.23
2017-08-20T10:47:13.316Z,25.2
2017-08-20T10:48:13.037Z,25.25
2017-08-20T10:49:13.365Z,25.21
2017-08-20T10:50:12.839Z,25.35
2017-08-20T10:51:13.427Z,25.24
2017-08-20T10:52:13.135Z,25.33
2017-08-20T10:53:13.176Z,25.36
2017-08-20T10:54:13.524Z,25.38
2017-08-20T10:55:13.550Z,25.43
2017-08-20T10:56:13.580Z,25.35
2017-08-20T10:57:13.600Z,25.47
2017-08-20T10:58:13.628Z,25.35
2017-08-20T10:59:13.596Z,25.5
2017-08-20T11:00:13.693Z,25.43
2017-08-20T11:01:13.424Z,25.43
2017-08-20T11:02:13.743Z,25.5
2017-08-20T11:03:13.773Z,25.52
2017-08-20T11:04:13.801Z,25.52
2017-08-20T11:05:13.831Z,25.55
2017-08-20T11:06:13.541Z,25.43
2017-08-20T11:07:13.875Z,25.47
2017-08-20T11:08:13.600Z,25.52
2017-08-20T11:09:13.931Z,25.55
2017-08-20T11:10:13.968Z,25.51
2017-08-20T11:11:13.683Z,25.55
2017-08-20T11:12:13.708Z,25.54
2017-08-20T11:13:14.051Z,25.57
2017-08-20T11:14:14.007Z,25.61
2017-08-20T11:15:14.106Z,25.57
2017-08-20T11:16:14.134Z,25.55
2017-08-20T11:17:14.163Z,25.62
2017-08-20T11:18:14.185Z,25.58
2017-08-20T11:19:13.912Z,25.61
2017-08-20T11:20:14.242Z,25.58
2017-08-20T11:21:13.964Z,25.64
2017-08-20T11:22:14.302Z,25.62
2017-08-20T11:23:14.016Z,25.61
2017-08-20T11:24:14.661Z,25.62
2017-08-20T11:25:14.074Z,25.62
2017-08-20T11:26:14.414Z,25.7
2017-08-20T11:27:14.446Z,25.69
2017-08-20T11:28:14.477Z,25.77
2017-08-20T11:29:14.501Z,25.75
2017-08-20T11:30:14.537Z,25.77
2017-08-20T11:31:14.553Z,25.76
2017-08-20T11:32:14.587Z,25.75
2017-08-20T11:33:14.304Z,25.75
2017-08-20T11:34:14.327Z,25.8
2017-08-20T11:35:14.678Z,25.82
2017-08-20T11:36:14.386Z,25.77
2017-08-20T11:37:14.734Z,25.8
2017-08-20T11:38:14.442Z,25.9
2017-08-20T11:39:14.768Z,25.85
2017-08-20T11:40:14.813Z,25.79
2017-08-20T11:41:14.530Z,25.83
2017-08-20T11:42:14.875Z,25.98
2017-08-20T11:43:14.899Z,26.09
2017-08-20T11:44:14.938Z,26.17
2017-08-20T11:45:14.337Z,26.29
2017-08-20T11:46:14.973Z,26.47
2017-08-20T11:47:15.015Z,26.54
2017-08-20T11:48:14.735Z,26.75
2017-08-20T11:49:14.760Z,26.89
2017-08-20T11:50:15.101Z,27.03
2017-08-20T11:51:15.132Z,27.22
2017-08-20T11:52:14.855Z,27.29
2017-08-20T11:53:15.187Z,27.41
2017-08-20T11:54:14.919Z,27.57
2017-08-20T11:55:15.245Z,27.72
2017-08-20T11:56:14.973Z,27.88
2017-08-20T11:57:15.310Z,28.04
2017-08-20T11:58:15.031Z,28.18
2017-08-20T11:59:15.368Z,28.3
2017-08-20T12:00:15.400Z,28.36
2017-08-20T12:01:15.122Z,28.56
2017-08-20T12:02:15.454Z,28.66
2017-08-20T12:03:15.486Z,28.68
2017-08-20T12:04:15.206Z,28.89
2017-08-20T12:05:15.550Z,28.92
2017-08-20T12:06:15.581Z,29.12
2017-08-20T12:07:15.618Z,29.19
2017-08-20T12:08:15.639Z,29.18
2017-08-20T12:09:15.055Z,29.23
2017-08-20T12:10:15.708Z,29.36
2017-08-20T12:11:15.734Z,29.41
2017-08-20T12:12:15.771Z,29.48
2017-08-20T12:13:15.806Z,29.57
2017-08-20T12:14:15.520Z,29.55
2017-08-20T12:15:15.864Z,29.73
2017-08-20T12:16:15.899Z,29.79
2017-08-20T12:17:15.921Z,29.85
2017-08-20T12:18:15.963Z,29.9
2017-08-20T12:19:15.683Z,29.94
2017-08-20T12:20:16.023Z,29.95
2017-08-20T12:21:16.075Z,30.1
2017-08-20T12:22:16.087Z,30.23
2017-08-20T12:23:16.119Z,30.34
2017-08-20T12:24:16.143Z,30.27
2017-08-20T12:25:15.552Z,30.39
2017-08-20T12:26:15.911Z,30.51
2017-08-20T12:27:15.941Z,30.54
2017-08-20T12:28:16.275Z,30.67
2017-08-20T12:29:16.299Z,30.54
2017-08-20T12:30:16.336Z,30.69
2017-08-20T12:31:16.369Z,30.58
2017-08-20T12:32:16.093Z,30.57
2017-08-20T12:33:16.118Z,30.69
2017-08-20T12:34:16.463Z,30.72
2017-08-20T12:35:16.180Z,30.67
2017-08-20T12:36:16.529Z,30.58
2017-08-20T12:37:15.944Z,30.47
2017-08-20T12:38:16.281Z,30.34
2017-08-20T12:39:16.622Z,30.37
2017-08-20T12:40:16.659Z,30.2
2017-08-20T12:41:16.676Z,30.1
2017-08-20T12:42:16.399Z,29.97
2017-08-20T12:43:16.750Z,29.89
2017-08-20T12:44:16.783Z,29.7
2017-08-20T12:45:16.500Z,29.6
2017-08-20T12:46:16.832Z,29.46
2017-08-20T12:47:16.879Z,29.36
2017-08-20T12:48:16.898Z,29.34
2017-08-20T12:49:16.629Z,29.26
2017-08-20T12:50:16.655Z,29.19
2017-08-20T12:51:16.996Z,29.06
2017-08-20T12:52:17.026Z,28.86
2017-08-20T12:53:17.061Z,28.74
2017-08-20T12:54:16.772Z,28.67
2017-08-20T12:55:17.122Z,28.54
2017-08-20T12:56:17.154Z,28.51